sensor_id;sensor_type;location;lat;lon;timestamp;P1;durP1;ratioP1;P2;durP2;ratioP2
12306;SDS011;6216;51.146;7.008;2024-03-07T00:02:15;33.93;;;23.73;;
12306;SDS011;6216;51.146;7.008;2024-03-07T00:07:38;35.83;;;23.97;;
12306;SDS011;6216;51.146;7.008;2024-03-07T00:13:01;37.87;;;23.60;;
12306;SDS011;6216;51.146;7.008;2024-03-07T00:18:25;39.03;;;23.40;;
12306;SDS011;6216;51.146;7.008;2024-03-07T00:23:48;42.63;;;23.70;;
12306;SDS011;6216;51.146;7.008;2024-03-07T00:29:11;39.17;;;25.27;;
12306;SDS011;6216;51.146;7.008;2024-03-07T00:34:35;39.63;;;25.63;;
12306;SDS011;6216;51.146;7.008;2024-03-07T00:39:57;37.17;;;24.80;;
12306;SDS011;6216;51.146;7.008;2024-03-07T00:45:20;40.10;;;25.07;;
12306;SDS011;6216;51.146;7.008;2024-03-07T00:50:44;39.07;;;24.00;;
12306;SDS011;6216;51.146;7.008;2024-03-07T00:56:07;40.03;;;24.33;;
12306;SDS011;6216;51.146;7.008;2024-03-07T01:01:30;36.47;;;24.00;;
12306;SDS011;6216;51.146;7.008;2024-03-07T01:06:55;35.77;;;23.03;;
12306;SDS011;6216;51.146;7.008;2024-03-07T01:12:18;37.07;;;24.23;;
12306;SDS011;6216;51.146;7.008;2024-03-07T01:17:41;40.07;;;23.60;;
12306;SDS011;6216;51.146;7.008;2024-03-07T01:23:05;35.77;;;23.20;;
12306;SDS011;6216;51.146;7.008;2024-03-07T01:28:29;37.87;;;23.60;;
12306;SDS011;6216;51.146;7.008;2024-03-07T01:33:52;33.93;;;21.57;;
12306;SDS011;6216;51.146;7.008;2024-03-07T01:39:16;33.33;;;22.33;;
12306;SDS011;6216;51.146;7.008;2024-03-07T01:44:39;34.40;;;22.43;;
12306;SDS011;6216;51.146;7.008;2024-03-07T01:50:03;32.87;;;21.70;;
12306;SDS011;6216;51.146;7.008;2024-03-07T01:55:27;32.97;;;21.67;;
12306;SDS011;6216;51.146;7.008;2024-03-07T02:00:50;30.33;;;20.73;;
12306;SDS011;6216;51.146;7.008;2024-03-07T02:06:12;32.60;;;21.13;;
12306;SDS011;6216;51.146;7.008;2024-03-07T02:11:37;34.43;;;22.67;;
12306;SDS011;6216;51.146;7.008;2024-03-07T02:17:00;31.43;;;21.00;;
12306;SDS011;6216;51.146;7.008;2024-03-07T02:22:24;31.27;;;19.13;;
12306;SDS011;6216;51.146;7.008;2024-03-07T02:27:47;28.57;;;19.60;;
12306;SDS011;6216;51.146;7.008;2024-03-07T02:33:10;30.10;;;18.87;;
12306;SDS011;6216;51.146;7.008;2024-03-07T02:38:34;28.40;;;18.73;;
12306;SDS011;6216;51.146;7.008;2024-03-07T02:43:57;27.37;;;18.90;;
12306;SDS011;6216;51.146;7.008;2024-03-07T02:49:19;25.70;;;17.97;;
12306;SDS011;6216;51.146;7.008;2024-03-07T02:54:44;29.30;;;19.33;;
12306;SDS011;6216;51.146;7.008;2024-03-07T03:00:06;28.40;;;18.97;;
12306;SDS011;6216;51.146;7.008;2024-03-07T03:05:40;28.67;;;19.50;;
12306;SDS011;6216;51.146;7.008;2024-03-07T03:11:04;28.97;;;18.63;;
12306;SDS011;6216;51.146;7.008;2024-03-07T03:16:28;26.47;;;19.37;;
12306;SDS011;6216;51.146;7.008;2024-03-07T03:22:08;26.33;;;18.53;;
12306;SDS011;6216;51.146;7.008;2024-03-07T03:27:32;28.13;;;19.63;;
12306;SDS011;6216;51.146;7.008;2024-03-07T03:32:54;29.97;;;19.63;;
12306;SDS011;6216;51.146;7.008;2024-03-07T03:38:17;29.50;;;20.47;;
12306;SDS011;6216;51.146;7.008;2024-03-07T03:43:42;31.80;;;19.60;;
12306;SDS011;6216;51.146;7.008;2024-03-07T03:49:05;32.13;;;19.83;;
12306;SDS011;6216;51.146;7.008;2024-03-07T03:54:28;28.37;;;19.63;;
12306;SDS011;6216;51.146;7.008;2024-03-07T03:59:52;32.10;;;20.43;;
12306;SDS011;6216;51.146;7.008;2024-03-07T04:05:15;31.00;;;19.87;;
12306;SDS011;6216;51.146;7.008;2024-03-07T04:10:38;34.20;;;20.50;;
12306;SDS011;6216;51.146;7.008;2024-03-07T04:16:02;34.13;;;22.17;;
12306;SDS011;6216;51.146;7.008;2024-03-07T04:21:26;29.73;;;20.00;;
12306;SDS011;6216;51.146;7.008;2024-03-07T04:26:48;29.47;;;20.00;;
12306;SDS011;6216;51.146;7.008;2024-03-07T04:32:12;29.23;;;20.80;;
12306;SDS011;6216;51.146;7.008;2024-03-07T04:37:34;33.87;;;20.40;;
12306;SDS011;6216;51.146;7.008;2024-03-07T04:42:58;35.50;;;21.43;;
12306;SDS011;6216;51.146;7.008;2024-03-07T04:48:22;29.33;;;20.93;;
12306;SDS011;6216;51.146;7.008;2024-03-07T04:53:44;30.00;;;21.50;;
12306;SDS011;6216;51.146;7.008;2024-03-07T04:59:07;34.13;;;21.53;;
12306;SDS011;6216;51.146;7.008;2024-03-07T05:04:34;32.77;;;21.13;;
12306;SDS011;6216;51.146;7.008;2024-03-07T05:09:57;29.97;;;20.10;;
12306;SDS011;6216;51.146;7.008;2024-03-07T05:15:19;32.23;;;21.43;;
12306;SDS011;6216;51.146;7.008;2024-03-07T05:20:43;32.93;;;20.97;;
12306;SDS011;6216;51.146;7.008;2024-03-07T05:26:06;32.33;;;20.90;;
12306;SDS011;6216;51.146;7.008;2024-03-07T05:31:29;28.43;;;20.10;;
12306;SDS011;6216;51.146;7.008;2024-03-07T05:36:56;30.37;;;20.20;;
12306;SDS011;6216;51.146;7.008;2024-03-07T05:42:19;33.10;;;20.40;;
12306;SDS011;6216;51.146;7.008;2024-03-07T05:47:42;33.27;;;20.80;;
12306;SDS011;6216;51.146;7.008;2024-03-07T05:53:06;29.40;;;20.83;;
12306;SDS011;6216;51.146;7.008;2024-03-07T05:58:29;32.83;;;22.23;;
12306;SDS011;6216;51.146;7.008;2024-03-07T06:03:51;31.50;;;21.60;;
12306;SDS011;6216;51.146;7.008;2024-03-07T06:09:16;31.17;;;21.23;;
12306;SDS011;6216;51.146;7.008;2024-03-07T06:14:42;35.40;;;21.80;;
12306;SDS011;6216;51.146;7.008;2024-03-07T06:20:06;30.73;;;20.83;;
12306;SDS011;6216;51.146;7.008;2024-03-07T06:25:45;31.93;;;19.77;;
12306;SDS011;6216;51.146;7.008;2024-03-07T06:31:11;33.17;;;19.37;;
12306;SDS011;6216;51.146;7.008;2024-03-07T06:36:34;25.47;;;19.13;;
12306;SDS011;6216;51.146;7.008;2024-03-07T06:41:58;25.17;;;17.53;;
12306;SDS011;6216;51.146;7.008;2024-03-07T06:47:20;26.50;;;18.03;;
12306;SDS011;6216;51.146;7.008;2024-03-07T06:52:43;29.87;;;19.23;;
12306;SDS011;6216;51.146;7.008;2024-03-07T06:58:09;24.63;;;17.97;;
12306;SDS011;6216;51.146;7.008;2024-03-07T07:03:32;22.13;;;16.47;;
12306;SDS011;6216;51.146;7.008;2024-03-07T07:08:55;22.10;;;16.77;;
12306;SDS011;6216;51.146;7.008;2024-03-07T07:14:19;26.60;;;17.63;;
12306;SDS011;6216;51.146;7.008;2024-03-07T07:19:42;24.03;;;16.87;;
12306;SDS011;6216;51.146;7.008;2024-03-07T07:25:04;19.90;;;15.63;;
12306;SDS011;6216;51.146;7.008;2024-03-07T07:30:29;21.33;;;15.07;;
12306;SDS011;6216;51.146;7.008;2024-03-07T07:35:52;20.93;;;15.80;;
12306;SDS011;6216;51.146;7.008;2024-03-07T07:41:14;17.63;;;14.10;;
12306;SDS011;6216;51.146;7.008;2024-03-07T07:46:38;20.93;;;15.13;;
12306;SDS011;6216;51.146;7.008;2024-03-07T07:52:01;17.67;;;14.57;;
12306;SDS011;6216;51.146;7.008;2024-03-07T07:57:24;17.73;;;13.27;;
12306;SDS011;6216;51.146;7.008;2024-03-07T08:02:52;20.07;;;14.70;;
12306;SDS011;6216;51.146;7.008;2024-03-07T08:08:15;19.57;;;15.40;;
12306;SDS011;6216;51.146;7.008;2024-03-07T08:13:40;20.03;;;14.80;;
12306;SDS011;6216;51.146;7.008;2024-03-07T08:19:03;16.50;;;13.40;;
12306;SDS011;6216;51.146;7.008;2024-03-07T08:24:27;20.43;;;13.50;;
12306;SDS011;6216;51.146;7.008;2024-03-07T08:29:50;17.73;;;13.67;;
12306;SDS011;6216;51.146;7.008;2024-03-07T08:35:14;15.57;;;12.60;;
12306;SDS011;6216;51.146;7.008;2024-03-07T08:40:38;18.93;;;12.93;;
12306;SDS011;6216;51.146;7.008;2024-03-07T08:46:01;17.37;;;13.03;;
12306;SDS011;6216;51.146;7.008;2024-03-07T08:51:25;18.83;;;12.70;;
12306;SDS011;6216;51.146;7.008;2024-03-07T08:56:47;16.23;;;12.83;;
12306;SDS011;6216;51.146;7.008;2024-03-07T09:02:10;17.27;;;13.23;;
12306;SDS011;6216;51.146;7.008;2024-03-07T09:07:35;15.60;;;12.47;;
12306;SDS011;6216;51.146;7.008;2024-03-07T09:12:57;16.90;;;13.60;;
12306;SDS011;6216;51.146;7.008;2024-03-07T09:18:20;14.17;;;12.10;;
12306;SDS011;6216;51.146;7.008;2024-03-07T09:23:47;14.83;;;12.20;;
12306;SDS011;6216;51.146;7.008;2024-03-07T09:29:10;16.90;;;12.80;;
12306;SDS011;6216;51.146;7.008;2024-03-07T09:34:32;15.53;;;12.43;;
12306;SDS011;6216;51.146;7.008;2024-03-07T09:39:58;16.23;;;11.73;;
12306;SDS011;6216;51.146;7.008;2024-03-07T09:45:21;15.20;;;12.60;;
12306;SDS011;6216;51.146;7.008;2024-03-07T09:50:45;16.73;;;12.73;;
12306;SDS011;6216;51.146;7.008;2024-03-07T09:56:09;16.67;;;12.10;;
12306;SDS011;6216;51.146;7.008;2024-03-07T10:01:34;14.70;;;11.40;;
12306;SDS011;6216;51.146;7.008;2024-03-07T10:06:58;16.67;;;12.40;;
12306;SDS011;6216;51.146;7.008;2024-03-07T10:12:22;17.03;;;12.60;;
12306;SDS011;6216;51.146;7.008;2024-03-07T10:17:44;14.10;;;11.27;;
12306;SDS011;6216;51.146;7.008;2024-03-07T10:23:08;15.53;;;12.20;;
12306;SDS011;6216;51.146;7.008;2024-03-07T10:28:33;14.70;;;11.93;;
12306;SDS011;6216;51.146;7.008;2024-03-07T10:33:58;14.87;;;11.77;;
12306;SDS011;6216;51.146;7.008;2024-03-07T10:39:21;14.33;;;11.60;;
12306;SDS011;6216;51.146;7.008;2024-03-07T10:44:45;14.93;;;11.73;;
12306;SDS011;6216;51.146;7.008;2024-03-07T10:50:09;18.40;;;12.03;;
12306;SDS011;6216;51.146;7.008;2024-03-07T10:55:37;13.80;;;11.70;;
12306;SDS011;6216;51.146;7.008;2024-03-07T11:01:04;14.23;;;11.57;;
12306;SDS011;6216;51.146;7.008;2024-03-07T11:06:27;13.23;;;11.53;;
12306;SDS011;6216;51.146;7.008;2024-03-07T11:11:50;13.87;;;11.20;;
12306;SDS011;6216;51.146;7.008;2024-03-07T11:17:15;13.57;;;10.40;;
12306;SDS011;6216;51.146;7.008;2024-03-07T11:22:40;17.63;;;11.30;;
12306;SDS011;6216;51.146;7.008;2024-03-07T11:28:06;12.10;;;10.87;;
12306;SDS011;6216;51.146;7.008;2024-03-07T11:33:30;12.10;;;9.80;;
12306;SDS011;6216;51.146;7.008;2024-03-07T11:38:53;11.30;;;9.83;;
12306;SDS011;6216;51.146;7.008;2024-03-07T11:44:15;10.20;;;8.70;;
12306;SDS011;6216;51.146;7.008;2024-03-07T11:49:40;14.87;;;10.00;;
12306;SDS011;6216;51.146;7.008;2024-03-07T11:55:02;11.03;;;9.47;;
12306;SDS011;6216;51.146;7.008;2024-03-07T12:00:26;10.37;;;8.67;;
12306;SDS011;6216;51.146;7.008;2024-03-07T12:05:57;9.67;;;8.00;;
12306;SDS011;6216;51.146;7.008;2024-03-07T12:11:19;9.07;;;7.23;;
12306;SDS011;6216;51.146;7.008;2024-03-07T12:16:42;8.07;;;6.80;;
12306;SDS011;6216;51.146;7.008;2024-03-07T12:22:09;11.23;;;7.20;;
12306;SDS011;6216;51.146;7.008;2024-03-07T12:27:33;7.23;;;6.53;;
12306;SDS011;6216;51.146;7.008;2024-03-07T12:32:56;7.93;;;6.53;;
12306;SDS011;6216;51.146;7.008;2024-03-07T12:38:20;7.03;;;6.23;;
12306;SDS011;6216;51.146;7.008;2024-03-07T12:43:44;7.50;;;6.60;;
12306;SDS011;6216;51.146;7.008;2024-03-07T12:49:08;7.30;;;6.53;;
12306;SDS011;6216;51.146;7.008;2024-03-07T12:54:32;8.30;;;6.43;;
12306;SDS011;6216;51.146;7.008;2024-03-07T12:59:54;8.23;;;6.47;;
12306;SDS011;6216;51.146;7.008;2024-03-07T13:05:17;10.17;;;6.87;;
12306;SDS011;6216;51.146;7.008;2024-03-07T13:10:44;9.87;;;7.23;;
12306;SDS011;6216;51.146;7.008;2024-03-07T13:16:11;8.53;;;7.73;;
12306;SDS011;6216;51.146;7.008;2024-03-07T13:21:34;9.00;;;6.67;;
12306;SDS011;6216;51.146;7.008;2024-03-07T13:26:58;9.17;;;7.50;;
12306;SDS011;6216;51.146;7.008;2024-03-07T13:32:20;9.37;;;7.30;;
12306;SDS011;6216;51.146;7.008;2024-03-07T13:37:43;9.97;;;7.93;;
12306;SDS011;6216;51.146;7.008;2024-03-07T13:43:09;8.83;;;7.47;;
12306;SDS011;6216;51.146;7.008;2024-03-07T13:48:32;7.93;;;7.13;;
12306;SDS011;6216;51.146;7.008;2024-03-07T13:53:58;10.47;;;8.20;;
12306;SDS011;6216;51.146;7.008;2024-03-07T13:59:51;7.27;;;6.20;;
12306;SDS011;6216;51.146;7.008;2024-03-07T14:05:29;6.97;;;6.23;;
12306;SDS011;6216;51.146;7.008;2024-03-07T14:16:53;8.27;;;6.83;;
12306;SDS011;6216;51.146;7.008;2024-03-07T14:22:22;7.33;;;5.33;;
12306;SDS011;6216;51.146;7.008;2024-03-07T14:27:58;7.40;;;6.07;;
12306;SDS011;6216;51.146;7.008;2024-03-07T14:33:31;9.27;;;6.13;;
12306;SDS011;6216;51.146;7.008;2024-03-07T14:38:55;9.67;;;6.77;;
12306;SDS011;6216;51.146;7.008;2024-03-07T14:44:19;7.30;;;5.90;;
12306;SDS011;6216;51.146;7.008;2024-03-07T14:49:43;6.57;;;5.67;;
12306;SDS011;6216;51.146;7.008;2024-03-07T14:55:07;7.03;;;5.43;;
12306;SDS011;6216;51.146;7.008;2024-03-07T15:00:32;7.63;;;6.57;;
12306;SDS011;6216;51.146;7.008;2024-03-07T15:06:03;5.80;;;5.00;;
12306;SDS011;6216;51.146;7.008;2024-03-07T15:11:31;7.23;;;6.17;;
12306;SDS011;6216;51.146;7.008;2024-03-07T15:16:55;7.37;;;6.03;;
12306;SDS011;6216;51.146;7.008;2024-03-07T15:22:19;8.17;;;6.07;;
12306;SDS011;6216;51.146;7.008;2024-03-07T15:27:42;9.07;;;7.63;;
12306;SDS011;6216;51.146;7.008;2024-03-07T15:33:04;11.07;;;7.33;;
12306;SDS011;6216;51.146;7.008;2024-03-07T15:38:28;8.90;;;7.17;;
12306;SDS011;6216;51.146;7.008;2024-03-07T15:43:51;10.90;;;7.60;;
12306;SDS011;6216;51.146;7.008;2024-03-07T15:49:13;9.07;;;7.20;;
12306;SDS011;6216;51.146;7.008;2024-03-07T15:54:37;11.00;;;7.83;;
12306;SDS011;6216;51.146;7.008;2024-03-07T15:59:59;12.03;;;7.73;;
12306;SDS011;6216;51.146;7.008;2024-03-07T16:05:25;11.13;;;7.43;;
12306;SDS011;6216;51.146;7.008;2024-03-07T16:10:51;7.73;;;6.77;;
12306;SDS011;6216;51.146;7.008;2024-03-07T16:16:14;11.07;;;6.93;;
12306;SDS011;6216;51.146;7.008;2024-03-07T16:21:39;9.70;;;7.43;;
12306;SDS011;6216;51.146;7.008;2024-03-07T16:27:07;8.67;;;7.13;;
12306;SDS011;6216;51.146;7.008;2024-03-07T16:32:30;10.10;;;7.53;;
12306;SDS011;6216;51.146;7.008;2024-03-07T16:37:54;11.37;;;7.90;;
12306;SDS011;6216;51.146;7.008;2024-03-07T16:43:19;11.93;;;8.47;;
12306;SDS011;6216;51.146;7.008;2024-03-07T16:48:46;10.20;;;7.20;;
12306;SDS011;6216;51.146;7.008;2024-03-07T16:54:08;13.07;;;7.67;;
12306;SDS011;6216;51.146;7.008;2024-03-07T16:59:34;14.17;;;8.93;;
12306;SDS011;6216;51.146;7.008;2024-03-07T17:04:58;12.17;;;8.20;;
12306;SDS011;6216;51.146;7.008;2024-03-07T17:10:20;14.37;;;8.77;;
12306;SDS011;6216;51.146;7.008;2024-03-07T17:15:47;10.93;;;8.10;;
12306;SDS011;6216;51.146;7.008;2024-03-07T17:21:09;10.77;;;7.80;;
12306;SDS011;6216;51.146;7.008;2024-03-07T17:26:33;13.87;;;8.80;;
12306;SDS011;6216;51.146;7.008;2024-03-07T17:31:57;12.53;;;8.10;;
12306;SDS011;6216;51.146;7.008;2024-03-07T17:37:20;11.07;;;7.50;;
12306;SDS011;6216;51.146;7.008;2024-03-07T17:42:43;11.70;;;7.93;;
12306;SDS011;6216;51.146;7.008;2024-03-07T17:48:08;9.50;;;7.53;;
12306;SDS011;6216;51.146;7.008;2024-03-07T17:53:32;12.13;;;8.60;;
12306;SDS011;6216;51.146;7.008;2024-03-07T17:58:54;13.60;;;8.50;;
12306;SDS011;6216;51.146;7.008;2024-03-07T18:04:18;11.50;;;8.03;;
12306;SDS011;6216;51.146;7.008;2024-03-07T18:09:45;13.30;;;9.40;;
12306;SDS011;6216;51.146;7.008;2024-03-07T18:15:08;11.73;;;8.13;;
12306;SDS011;6216;51.146;7.008;2024-03-07T18:20:43;13.10;;;8.77;;
12306;SDS011;6216;51.146;7.008;2024-03-07T18:26:07;10.60;;;8.13;;
12306;SDS011;6216;51.146;7.008;2024-03-07T18:31:35;17.60;;;8.93;;
12306;SDS011;6216;51.146;7.008;2024-03-07T18:36:59;15.97;;;9.30;;
12306;SDS011;6216;51.146;7.008;2024-03-07T18:42:25;15.37;;;10.53;;
12306;SDS011;6216;51.146;7.008;2024-03-07T18:47:50;12.23;;;10.00;;
12306;SDS011;6216;51.146;7.008;2024-03-07T18:53:15;13.10;;;9.80;;
12306;SDS011;6216;51.146;7.008;2024-03-07T18:58:42;14.47;;;9.13;;
12306;SDS011;6216;51.146;7.008;2024-03-07T19:04:06;15.60;;;10.17;;
12306;SDS011;6216;51.146;7.008;2024-03-07T19:09:31;13.87;;;9.30;;
12306;SDS011;6216;51.146;7.008;2024-03-07T19:14:53;16.33;;;10.07;;
12306;SDS011;6216;51.146;7.008;2024-03-07T19:20:16;16.50;;;10.60;;
12306;SDS011;6216;51.146;7.008;2024-03-07T19:25:40;11.90;;;8.97;;
12306;SDS011;6216;51.146;7.008;2024-03-07T19:31:04;13.97;;;10.10;;
12306;SDS011;6216;51.146;7.008;2024-03-07T19:36:30;14.97;;;10.57;;
12306;SDS011;6216;51.146;7.008;2024-03-07T19:41:54;13.30;;;9.43;;
12306;SDS011;6216;51.146;7.008;2024-03-07T19:47:29;16.03;;;10.03;;
12306;SDS011;6216;51.146;7.008;2024-03-07T19:52:52;16.10;;;10.13;;
12306;SDS011;6216;51.146;7.008;2024-03-07T19:58:16;14.00;;;9.73;;
12306;SDS011;6216;51.146;7.008;2024-03-07T20:03:42;11.90;;;9.33;;
12306;SDS011;6216;51.146;7.008;2024-03-07T20:09:07;12.60;;;9.67;;
12306;SDS011;6216;51.146;7.008;2024-03-07T20:14:39;12.90;;;9.57;;
12306;SDS011;6216;51.146;7.008;2024-03-07T20:20:02;13.70;;;9.83;;
12306;SDS011;6216;51.146;7.008;2024-03-07T20:25:35;12.77;;;10.03;;
12306;SDS011;6216;51.146;7.008;2024-03-07T20:31:00;12.17;;;10.17;;
12306;SDS011;6216;51.146;7.008;2024-03-07T20:36:23;11.37;;;9.63;;
12306;SDS011;6216;51.146;7.008;2024-03-07T20:41:47;13.33;;;10.70;;
12306;SDS011;6216;51.146;7.008;2024-03-07T20:47:12;12.53;;;10.00;;
12306;SDS011;6216;51.146;7.008;2024-03-07T20:52:36;12.40;;;9.97;;
12306;SDS011;6216;51.146;7.008;2024-03-07T20:57:58;14.50;;;9.93;;
12306;SDS011;6216;51.146;7.008;2024-03-07T21:03:23;13.93;;;9.77;;
12306;SDS011;6216;51.146;7.008;2024-03-07T21:08:48;15.20;;;10.80;;
12306;SDS011;6216;51.146;7.008;2024-03-07T21:14:13;12.20;;;9.67;;
12306;SDS011;6216;51.146;7.008;2024-03-07T21:19:37;16.80;;;10.70;;
12306;SDS011;6216;51.146;7.008;2024-03-07T21:24:59;11.57;;;9.93;;
12306;SDS011;6216;51.146;7.008;2024-03-07T21:30:22;12.43;;;9.60;;
12306;SDS011;6216;51.146;7.008;2024-03-07T21:35:47;13.77;;;10.20;;
12306;SDS011;6216;51.146;7.008;2024-03-07T21:41:10;13.40;;;10.87;;
12306;SDS011;6216;51.146;7.008;2024-03-07T21:46:39;12.93;;;10.33;;
12306;SDS011;6216;51.146;7.008;2024-03-07T21:52:03;13.60;;;11.10;;
12306;SDS011;6216;51.146;7.008;2024-03-07T21:57:27;13.73;;;10.53;;
12306;SDS011;6216;51.146;7.008;2024-03-07T22:02:49;18.40;;;12.13;;
12306;SDS011;6216;51.146;7.008;2024-03-07T22:08:23;13.47;;;10.70;;
12306;SDS011;6216;51.146;7.008;2024-03-07T22:13:45;16.30;;;11.63;;
12306;SDS011;6216;51.146;7.008;2024-03-07T22:19:08;12.33;;;10.40;;
12306;SDS011;6216;51.146;7.008;2024-03-07T22:24:32;14.60;;;10.83;;
12306;SDS011;6216;51.146;7.008;2024-03-07T22:29:54;17.53;;;12.33;;
12306;SDS011;6216;51.146;7.008;2024-03-07T22:35:18;15.73;;;11.73;;
12306;SDS011;6216;51.146;7.008;2024-03-07T22:40:42;13.57;;;10.70;;
12306;SDS011;6216;51.146;7.008;2024-03-07T22:46:05;14.10;;;10.83;;
12306;SDS011;6216;51.146;7.008;2024-03-07T22:51:28;15.83;;;11.73;;
12306;SDS011;6216;51.146;7.008;2024-03-07T22:56:52;18.27;;;11.90;;
12306;SDS011;6216;51.146;7.008;2024-03-07T23:02:15;17.23;;;11.93;;
12306;SDS011;6216;51.146;7.008;2024-03-07T23:07:37;15.53;;;11.77;;
12306;SDS011;6216;51.146;7.008;2024-03-07T23:13:02;15.83;;;11.83;;
12306;SDS011;6216;51.146;7.008;2024-03-07T23:18:25;15.87;;;11.57;;
12306;SDS011;6216;51.146;7.008;2024-03-07T23:23:47;19.23;;;13.70;;
12306;SDS011;6216;51.146;7.008;2024-03-07T23:29:11;14.93;;;12.00;;
12306;SDS011;6216;51.146;7.008;2024-03-07T23:34:35;14.10;;;11.57;;
12306;SDS011;6216;51.146;7.008;2024-03-07T23:39:57;17.43;;;12.87;;
12306;SDS011;6216;51.146;7.008;2024-03-07T23:45:22;19.83;;;12.73;;
12306;SDS011;6216;51.146;7.008;2024-03-07T23:50:45;16.50;;;12.30;;
12306;SDS011;6216;51.146;7.008;2024-03-07T23:56:07;15.03;;;12.27;;
